Estación Meteorológica Peña el Pijo (Robertgarden) [ 06/25/17 17:36:18 CEST ]

Fecha Hora Presion(HPa) Temp (°C) Humedad % Rocio (°C) Viento ( m/s) Direccion Lluvia 1Hora(mm) Lluvia 24H(mm) LLuvia Total(mm)
2017-Jun-21 01:02:02 1013.400 19.2 64 12.2       0.51 1427.60
2017-Jun-21 02:01:48 1013.300 16.9 71 11.6       0.51 1427.60
2017-Jun-21 03:01:36 1013.000 17.0 73 12.1       0.51 1427.60
2017-Jun-21 04:01:35 1012.500 16.2 75 11.8       0.51 1427.60
2017-Jun-21 05:01:37 1012.400 15.2 78 11.4       0.51 1427.60
2017-Jun-21 06:02:11 1012.400 14.2 79 10.6       0.51 1427.60
2017-Jun-21 07:01:51 1012.300 13.9 80 10.5       0.51 1427.60
2017-Jun-21 08:01:59 1012.300 15.9 80 12.5       0.51 1427.60
2017-Jun-21 09:02:00 1012.100 22.6 67 16.2       0.51 1427.60
2017-Jun-21 10:01:43 1012.200 27.5 48 15.5       0.51 1427.60
2017-Jun-21 11:01:37 1012.100 33.2 35 15.6       0.51 1427.60
2017-Jun-21 12:01:44 1012.400 34.4 28 13.1 0.6 S   0.51 1427.60
2017-Jun-21 13:01:50 1012.300 34.4 28 13.1       0.51 1427.60
2017-Jun-21 14:01:43 1011.900 34.4 26 11.9       0.51 1427.60
2017-Jun-21 15:01:31 1011.400 31.9 29 11.6       0.51 1427.60
2017-Jun-21 16:01:36 1011.400 29.4 38 13.6         1427.60
2017-Jun-21 17:02:04 1011.000 33.3 32 14.3         1427.60
2017-Jun-21 18:01:38 1010.700 34.3 29 13.6         1427.60
2017-Jun-21 19:01:46 1011.000 31.2 31 12.0 2.9 S     1427.60
2017-Jun-21 20:01:53 1011.400 30.6 33 12.4         1427.60
2017-Jun-21 21:01:51 1011.700 27.2 40 12.5         1427.60
2017-Jun-21 22:01:43 1011.900 24.3 47 12.2         1427.60
2017-Jun-21 23:02:03 1012.800 21.4 56 12.2         1427.60

Temperatura Máxima:34°    Temperatura Mínima:13°
Presión Máxima:1013.400 Hpa    Presión Mínima:1010.700 Hpa


Volver